createdAt,value
2019-05-26T00:16:22.221Z,13.0
2019-05-26T00:33:03.289Z,12.6
2019-05-26T00:49:43.779Z,12.3
2019-05-26T01:06:24.183Z,12.3
2019-05-26T01:23:04.304Z,12.3
2019-05-26T01:39:44.340Z,12.0
2019-05-26T01:56:24.167Z,12.0
2019-05-26T02:13:04.133Z,12.0
2019-05-26T02:29:44.035Z,12.0
2019-05-26T02:46:23.925Z,12.0
2019-05-26T03:03:03.770Z,11.7
2019-05-26T03:19:43.373Z,11.7
2019-05-26T03:36:22.874Z,11.4
2019-05-26T03:53:02.115Z,11.4
2019-05-26T04:09:41.642Z,11.7
2019-05-26T04:26:21.269Z,11.7
2019-05-26T04:43:01.357Z,12.0
2019-05-26T04:59:41.921Z,12.6
2019-05-26T05:16:22.976Z,13.3
2019-05-26T05:33:04.293Z,13.9
2019-05-26T05:46:25.781Z,14.6
2019-05-26T06:03:07.986Z,14.6
2019-05-26T06:16:29.965Z,15.2
2019-05-26T06:33:12.622Z,15.2
2019-05-26T06:49:55.439Z,15.5
2019-05-26T07:06:38.485Z,15.8
2019-05-26T07:23:21.519Z,15.8
2019-05-26T07:30:02.925Z,16.5
2019-05-26T07:40:05.384Z,17.1
2019-05-26T07:56:49.882Z,17.1
2019-05-26T08:13:34.383Z,17.1
2019-05-26T08:26:58.058Z,17.8
2019-05-26T08:43:43.359Z,18.1
2019-05-26T08:57:07.631Z,18.1
2019-05-26T09:13:53.298Z,18.7
2019-05-26T09:30:39.506Z,19.4
2019-05-26T09:40:43.636Z,20.0
2019-05-26T09:57:31.320Z,20.6
2019-05-26T10:14:19.073Z,21.0
2019-05-26T10:31:07.246Z,21.3
2019-05-26T10:47:56.195Z,21.3
2019-05-26T11:01:22.671Z,21.9
2019-05-26T11:18:11.681Z,22.2
2019-05-26T11:35:02.321Z,22.6
2019-05-26T11:51:50.856Z,22.9
2019-05-26T12:08:40.618Z,23.2
2019-05-26T12:25:31.093Z,23.5
2019-05-26T12:42:21.335Z,23.2
2019-05-26T12:59:12.363Z,23.5
2019-05-26T13:16:02.513Z,23.8
2019-05-26T13:32:53.405Z,23.8
2019-05-26T13:49:44.309Z,23.8
2019-05-26T14:06:34.910Z,23.2
2019-05-26T14:09:56.933Z,22.6
2019-05-26T14:16:40.749Z,21.9
2019-05-26T14:33:29.261Z,21.6
2019-05-26T14:50:18.111Z,21.9
2019-05-26T15:03:45.336Z,22.6
2019-05-26T15:20:34.756Z,22.6
2019-05-26T15:37:24.135Z,22.6
2019-05-26T15:54:13.995Z,23.2
2019-05-26T16:04:20.061Z,22.6
2019-05-26T16:14:25.514Z,21.9
2019-05-26T16:31:14.344Z,21.6
2019-05-26T16:48:02.520Z,21.3
2019-05-26T17:04:50.560Z,21.0
2019-05-26T17:21:38.621Z,21.3
2019-05-26T17:38:26.636Z,21.0
2019-05-26T17:55:14.340Z,21.0
2019-05-26T18:12:02.300Z,21.0
2019-05-26T18:28:50.055Z,20.6
2019-05-26T18:45:37.756Z,20.3
2019-05-26T19:02:24.660Z,20.0
2019-05-26T19:19:11.729Z,19.7
2019-05-26T19:35:58.540Z,19.7
2019-05-26T19:52:45.192Z,19.4
2019-05-26T20:09:31.867Z,19.4
2019-05-26T20:26:18.316Z,19.4
2019-05-26T20:43:04.767Z,19.0
2019-05-26T20:59:51.159Z,19.0
2019-05-26T21:16:37.286Z,18.7
2019-05-26T21:33:23.138Z,18.4
2019-05-26T21:50:08.783Z,18.1
2019-05-26T22:06:54.100Z,18.1
2019-05-26T22:23:39.406Z,17.8
2019-05-26T22:40:24.728Z,17.8
2019-05-26T22:57:09.587Z,17.4
2019-05-26T23:13:54.548Z,17.4
2019-05-26T23:30:39.279Z,17.1
2019-05-26T23:47:23.851Z,17.1
